sensor_id;sensor_type;location;lat;lon;timestamp;pressure;altitude;pressure_sealevel;temperature;humidity
48555;BME280;34336;48.270;16.716;2023-02-12T00:00:18;78259.47;;;18.16;70.11
48555;BME280;34336;48.270;16.716;2023-02-12T00:02:46;78267.19;;;18.16;70.60
48555;BME280;34336;48.270;16.716;2023-02-12T00:05:13;78263.31;;;18.16;70.39
48555;BME280;34336;48.270;16.716;2023-02-12T00:07:41;78274.91;;;18.16;70.79
48555;BME280;34336;48.270;16.716;2023-02-12T00:10:08;78278.75;;;18.16;71.16
48555;BME280;34336;48.270;16.716;2023-02-12T00:12:35;78267.19;;;18.16;71.40
48555;BME280;34336;48.270;16.716;2023-02-12T00:15:02;78278.75;;;18.16;71.90
48555;BME280;34336;48.270;16.716;2023-02-12T00:17:30;78286.47;;;18.16;72.01
48555;BME280;34336;48.270;16.716;2023-02-12T00:19:56;78292.25;;;18.16;72.30
48555;BME280;34336;48.270;16.716;2023-02-12T00:22:23;78290.31;;;18.16;72.35
48555;BME280;34336;48.270;16.716;2023-02-12T00:24:49;78274.91;;;18.16;72.70
48555;BME280;34336;48.270;16.716;2023-02-12T00:27:16;78261.41;;;18.16;72.75
48555;BME280;34336;48.270;16.716;2023-02-12T00:29:43;78255.63;;;18.16;72.95
48555;BME280;34336;48.270;16.716;2023-02-12T00:32:09;78249.84;;;18.16;72.77
48555;BME280;34336;48.270;16.716;2023-02-12T00:34:36;78247.91;;;18.16;72.93
48555;BME280;34336;48.270;16.716;2023-02-12T00:37:03;78234.41;;;18.16;72.89
48555;BME280;34336;48.270;16.716;2023-02-12T00:39:29;78232.47;;;18.16;72.61
48555;BME280;34336;48.270;16.716;2023-02-12T00:41:56;78236.34;;;18.16;72.89
48555;BME280;34336;48.270;16.716;2023-02-12T00:44:23;78232.47;;;18.16;72.97
48555;BME280;34336;48.270;16.716;2023-02-12T00:46:50;78228.63;;;18.16;73.12
48555;BME280;34336;48.270;16.716;2023-02-12T00:49:17;78230.56;;;18.16;73.08
48555;BME280;34336;48.270;16.716;2023-02-12T00:51:45;78220.91;;;18.16;73.65
48555;BME280;34336;48.270;16.716;2023-02-12T00:54:12;78226.69;;;18.16;73.71
48555;BME280;34336;48.270;16.716;2023-02-12T00:56:39;78217.06;;;18.16;73.90
48555;BME280;34336;48.270;16.716;2023-02-12T00:59:05;78220.91;;;18.16;73.52
48555;BME280;34336;48.270;16.716;2023-02-12T01:01:34;78230.56;;;18.16;74.09
48555;BME280;34336;48.270;16.716;2023-02-12T01:04:02;78236.34;;;18.16;73.96
48555;BME280;34336;48.270;16.716;2023-02-12T01:06:29;78230.56;;;18.16;74.13
48555;BME280;34336;48.270;16.716;2023-02-12T01:08:55;78236.34;;;18.16;74.19
48555;BME280;34336;48.270;16.716;2023-02-12T01:11:22;78253.69;;;18.16;74.76
48555;BME280;34336;48.270;16.716;2023-02-12T01:13:50;78261.41;;;18.16;74.93
48555;BME280;34336;48.270;16.716;2023-02-12T01:16:19;78267.19;;;18.16;75.20
48555;BME280;34336;48.270;16.716;2023-02-12T01:18:48;78278.75;;;18.16;75.33
48555;BME280;34336;48.270;16.716;2023-02-12T01:21:18;78280.69;;;18.16;75.71
48555;BME280;34336;48.270;16.716;2023-02-12T01:23:45;78282.59;;;18.16;76.41
48555;BME280;34336;48.270;16.716;2023-02-12T01:26:13;78290.31;;;18.16;76.55
48555;BME280;34336;48.270;16.716;2023-02-12T01:28:42;78288.38;;;18.16;76.69
48555;BME280;34336;48.270;16.716;2023-02-12T01:31:13;78301.88;;;18.16;77.05
48555;BME280;34336;48.270;16.716;2023-02-12T01:33:40;78305.75;;;18.16;77.22
48555;BME280;34336;48.270;16.716;2023-02-12T01:36:09;78311.53;;;18.16;77.66
48555;BME280;34336;48.270;16.716;2023-02-12T01:38:36;78317.31;;;18.16;78.04
48555;BME280;34336;48.270;16.716;2023-02-12T01:41:08;78317.31;;;18.16;78.18
48555;BME280;34336;48.270;16.716;2023-02-12T01:43:37;78325.03;;;18.16;78.85
48555;BME280;34336;48.270;16.716;2023-02-12T01:46:05;78328.88;;;18.16;79.41
48555;BME280;34336;48.270;16.716;2023-02-12T01:48:39;78332.72;;;18.16;79.80
48555;BME280;34336;48.270;16.716;2023-02-12T01:51:11;78336.59;;;18.16;79.82
48555;BME280;34336;48.270;16.716;2023-02-12T01:53:45;78336.59;;;18.16;80.41
48555;BME280;34336;48.270;16.716;2023-02-12T01:56:13;78326.94;;;18.16;80.56
48555;BME280;34336;48.270;16.716;2023-02-12T01:58:42;78321.16;;;18.16;81.55
48555;BME280;34336;48.270;16.716;2023-02-12T02:01:12;78313.44;;;18.16;82.63
48555;BME280;34336;48.270;16.716;2023-02-12T02:03:41;78301.88;;;18.16;82.55
48555;BME280;34336;48.270;16.716;2023-02-12T02:06:17;78286.47;;;18.16;83.29
48555;BME280;34336;48.270;16.716;2023-02-12T02:08:46;78292.25;;;18.16;83.47
48555;BME280;34336;48.270;16.716;2023-02-12T02:11:14;78278.75;;;18.16;84.20
48555;BME280;34336;48.270;16.716;2023-02-12T02:13:59;78267.19;;;18.16;83.99
48555;BME280;34336;48.270;16.716;2023-02-12T02:33:53;78247.91;;;18.16;84.68
48555;BME280;34336;48.270;16.716;2023-02-12T02:39:02;78238.25;;;18.16;84.84
48555;BME280;34336;48.270;16.716;2023-02-12T02:41:42;78240.19;;;18.16;84.87
48555;BME280;34336;48.270;16.716;2023-02-12T02:44:25;78244.03;;;18.16;84.24
48555;BME280;34336;48.270;16.716;2023-02-12T02:46:54;78257.53;;;18.16;84.78
48555;BME280;34336;48.270;16.716;2023-02-12T02:49:26;78249.84;;;18.16;84.72
48555;BME280;34336;48.270;16.716;2023-02-12T02:51:59;78251.75;;;18.16;85.06
48555;BME280;34336;48.270;16.716;2023-02-12T02:54:33;78244.03;;;18.16;84.61
48555;BME280;34336;48.270;16.716;2023-02-12T02:57:09;78245.97;;;18.16;84.08
48555;BME280;34336;48.270;16.716;2023-02-12T02:59:42;78247.91;;;18.16;84.74
48555;BME280;34336;48.270;16.716;2023-02-12T03:02:24;78249.84;;;18.16;84.98
48555;BME280;34336;48.270;16.716;2023-02-12T03:05:20;78242.13;;;18.16;84.38
48555;BME280;34336;48.270;16.716;2023-02-12T03:08:05;78245.97;;;18.16;84.06
48555;BME280;34336;48.270;16.716;2023-02-12T03:10:36;78253.69;;;18.16;84.77
48555;BME280;34336;48.270;16.716;2023-02-12T03:13:09;78247.91;;;18.16;84.85
48555;BME280;34336;48.270;16.716;2023-02-12T03:16:17;78255.63;;;18.16;84.58
48555;BME280;34336;48.270;16.716;2023-02-12T03:18:52;78251.75;;;18.16;84.69
48555;BME280;34336;48.270;16.716;2023-02-12T03:21:27;78255.63;;;18.16;84.72
48555;BME280;34336;48.270;16.716;2023-02-12T03:24:01;78261.41;;;18.16;85.22
48555;BME280;34336;48.270;16.716;2023-02-12T03:26:50;78255.63;;;18.16;85.29
48555;BME280;34336;48.270;16.716;2023-02-12T03:29:19;78255.63;;;18.16;84.81
48555;BME280;34336;48.270;16.716;2023-02-12T03:31:54;78247.91;;;18.16;84.31
48555;BME280;34336;48.270;16.716;2023-02-12T03:34:48;78259.47;;;18.16;84.65
48555;BME280;34336;48.270;16.716;2023-02-12T03:45:09;78240.19;;;18.16;84.43
48555;BME280;34336;48.270;16.716;2023-02-12T03:47:56;78245.97;;;18.16;84.36
48555;BME280;34336;48.270;16.716;2023-02-12T03:53:17;78245.97;;;18.16;84.50
48555;BME280;34336;48.270;16.716;2023-02-12T03:55:46;78244.03;;;18.16;84.26
48555;BME280;34336;48.270;16.716;2023-02-12T03:58:19;78259.47;;;18.16;84.32
48555;BME280;34336;48.270;16.716;2023-02-12T04:00:46;78257.53;;;18.16;84.40
48555;BME280;34336;48.270;16.716;2023-02-12T04:03:13;78259.47;;;18.16;84.14
48555;BME280;34336;48.270;16.716;2023-02-12T04:05:40;78267.19;;;18.16;84.22
48555;BME280;34336;48.270;16.716;2023-02-12T04:08:08;78274.91;;;18.16;84.55
48555;BME280;34336;48.270;16.716;2023-02-12T04:10:50;78276.81;;;18.16;84.10
48555;BME280;34336;48.270;16.716;2023-02-12T04:13:27;78282.59;;;18.16;84.61
48555;BME280;34336;48.270;16.716;2023-02-12T04:16:16;78263.31;;;18.16;83.97
48555;BME280;34336;48.270;16.716;2023-02-12T04:18:47;78274.91;;;18.16;83.77
48555;BME280;34336;48.270;16.716;2023-02-12T04:21:34;78282.59;;;18.16;84.03
48555;BME280;34336;48.270;16.716;2023-02-12T04:27:16;78290.31;;;18.16;84.31
48555;BME280;34336;48.270;16.716;2023-02-12T04:29:57;78296.09;;;18.16;84.38
48555;BME280;34336;48.270;16.716;2023-02-12T04:32:47;78294.19;;;18.16;84.83
48555;BME280;34336;48.270;16.716;2023-02-12T04:41:06;78294.19;;;18.16;84.65
48555;BME280;34336;48.270;16.716;2023-02-12T04:43:35;78294.19;;;18.16;84.51
48555;BME280;34336;48.270;16.716;2023-02-12T04:46:04;78296.09;;;18.16;84.45
48555;BME280;34336;48.270;16.716;2023-02-12T04:48:31;78298.03;;;18.16;84.57
48555;BME280;34336;48.270;16.716;2023-02-12T04:51:00;78294.19;;;18.16;84.45
48555;BME280;34336;48.270;16.716;2023-02-12T04:53:26;78305.75;;;18.16;84.14
48555;BME280;34336;48.270;16.716;2023-02-12T04:55:53;78298.03;;;18.16;84.37
48555;BME280;34336;48.270;16.716;2023-02-12T04:58:21;78294.19;;;18.16;84.16
48555;BME280;34336;48.270;16.716;2023-02-12T05:00:47;78294.19;;;18.16;84.08
48555;BME280;34336;48.270;16.716;2023-02-12T05:03:14;78294.19;;;18.16;84.02
48555;BME280;34336;48.270;16.716;2023-02-12T05:05:40;78298.03;;;18.16;84.01
48555;BME280;34336;48.270;16.716;2023-02-12T05:08:07;78299.97;;;18.16;83.58
48555;BME280;34336;48.270;16.716;2023-02-12T05:10:34;78315.38;;;18.16;83.30
48555;BME280;34336;48.270;16.716;2023-02-12T05:13:00;78323.09;;;18.16;82.61
48555;BME280;34336;48.270;16.716;2023-02-12T05:15:27;78336.59;;;18.16;83.32
48555;BME280;34336;48.270;16.716;2023-02-12T05:17:53;78346.22;;;18.16;83.34
48555;BME280;34336;48.270;16.716;2023-02-12T05:20:20;78348.16;;;18.16;83.40
48555;BME280;34336;48.270;16.716;2023-02-12T05:22:51;78361.66;;;18.16;83.92
48555;BME280;34336;48.270;16.716;2023-02-12T05:25:17;78367.44;;;18.16;84.25
48555;BME280;34336;48.270;16.716;2023-02-12T05:27:44;78382.88;;;18.16;84.38
48555;BME280;34336;48.270;16.716;2023-02-12T05:30:11;78386.72;;;18.16;84.81
48555;BME280;34336;48.270;16.716;2023-02-12T05:32:38;78398.28;;;18.16;84.84
48555;BME280;34336;48.270;16.716;2023-02-12T05:35:05;78411.78;;;18.16;84.68
48555;BME280;34336;48.270;16.716;2023-02-12T05:37:34;78417.56;;;18.16;84.69
48555;BME280;34336;48.270;16.716;2023-02-12T05:40:05;78433.00;;;18.16;84.98
48555;BME280;34336;48.270;16.716;2023-02-12T05:42:32;78434.91;;;18.16;85.19
48555;BME280;34336;48.270;16.716;2023-02-12T05:44:58;78452.28;;;18.16;84.99
48555;BME280;34336;48.270;16.716;2023-02-12T05:47:25;78456.13;;;18.16;85.22
48555;BME280;34336;48.270;16.716;2023-02-12T05:49:51;78471.56;;;18.16;85.51
48555;BME280;34336;48.270;16.716;2023-02-12T05:52:18;78463.84;;;18.16;85.74
48555;BME280;34336;48.270;16.716;2023-02-12T05:54:48;78479.25;;;18.16;85.69
48555;BME280;34336;48.270;16.716;2023-02-12T05:57:15;78477.34;;;18.16;85.90
48555;BME280;34336;48.270;16.716;2023-02-12T05:59:42;78486.97;;;18.16;85.75
48555;BME280;34336;48.270;16.716;2023-02-12T06:02:08;78494.69;;;18.16;86.13
48555;BME280;34336;48.270;16.716;2023-02-12T06:04:35;78510.13;;;18.16;86.34
48555;BME280;34336;48.270;16.716;2023-02-12T06:07:01;78517.81;;;18.16;86.87
48555;BME280;34336;48.270;16.716;2023-02-12T06:09:28;78513.97;;;18.16;86.91
48555;BME280;34336;48.270;16.716;2023-02-12T06:11:55;78513.97;;;18.16;86.99
48555;BME280;34336;48.270;16.716;2023-02-12T06:14:21;78525.53;;;18.16;86.72
48555;BME280;34336;48.270;16.716;2023-02-12T06:16:49;78521.69;;;18.16;86.69
48555;BME280;34336;48.270;16.716;2023-02-12T06:19:18;78512.03;;;18.16;86.64
48555;BME280;34336;48.270;16.716;2023-02-12T06:21:45;78502.41;;;18.16;86.35
48555;BME280;34336;48.270;16.716;2023-02-12T06:24:14;78498.53;;;18.16;85.88
48555;BME280;34336;48.270;16.716;2023-02-12T06:26:40;78496.63;;;18.16;85.72
48555;BME280;34336;48.270;16.716;2023-02-12T06:29:07;78490.84;;;18.16;85.75
48555;BME280;34336;48.270;16.716;2023-02-12T06:31:35;78486.97;;;18.16;85.47
48555;BME280;34336;48.270;16.716;2023-02-12T06:34:05;78479.25;;;18.16;84.96
48555;BME280;34336;48.270;16.716;2023-02-12T06:36:32;78479.25;;;18.16;84.59
48555;BME280;34336;48.270;16.716;2023-02-12T06:39:00;78467.69;;;18.16;84.20
48555;BME280;34336;48.270;16.716;2023-02-12T06:41:28;78469.63;;;18.16;84.06
48555;BME280;34336;48.270;16.716;2023-02-12T06:43:55;78473.47;;;18.16;84.16
48555;BME280;34336;48.270;16.716;2023-02-12T06:46:22;78471.56;;;18.16;83.69
48555;BME280;34336;48.270;16.716;2023-02-12T06:48:55;78479.25;;;18.16;84.35
48555;BME280;34336;48.270;16.716;2023-02-12T06:51:23;78475.41;;;18.16;84.10
48555;BME280;34336;48.270;16.716;2023-02-12T06:53:50;78479.25;;;18.16;83.70
48555;BME280;34336;48.270;16.716;2023-02-12T06:56:19;78471.56;;;18.16;83.95
48555;BME280;34336;48.270;16.716;2023-02-12T06:58:51;78463.84;;;18.16;83.85
48555;BME280;34336;48.270;16.716;2023-02-12T07:01:22;78471.56;;;18.16;83.37
48555;BME280;34336;48.270;16.716;2023-02-12T07:03:51;78469.63;;;18.16;83.72
48555;BME280;34336;48.270;16.716;2023-02-12T07:06:19;78463.84;;;18.16;83.53
48555;BME280;34336;48.270;16.716;2023-02-12T07:08:46;78458.06;;;18.16;83.26
48555;BME280;34336;48.270;16.716;2023-02-12T07:11:13;78448.41;;;18.16;82.72
48555;BME280;34336;48.270;16.716;2023-02-12T07:13:41;78438.78;;;18.16;82.47
48555;BME280;34336;48.270;16.716;2023-02-12T07:16:11;78440.69;;;18.16;82.49
48555;BME280;34336;48.270;16.716;2023-02-12T07:18:38;78436.84;;;18.16;81.77
48555;BME280;34336;48.270;16.716;2023-02-12T07:21:06;78433.00;;;18.16;81.44
48555;BME280;34336;48.270;16.716;2023-02-12T07:23:33;78379.00;;;18.16;82.84
48555;BME280;34336;48.270;16.716;2023-02-12T07:26:05;78409.84;;;18.16;80.36
48555;BME280;34336;48.270;16.716;2023-02-12T07:28:32;78402.16;;;18.16;80.05
48555;BME280;34336;48.270;16.716;2023-02-12T07:31:05;78390.56;;;18.16;79.93
48555;BME280;34336;48.270;16.716;2023-02-12T07:33:34;78386.72;;;18.16;79.66
48555;BME280;34336;48.270;16.716;2023-02-12T07:36:02;78382.88;;;18.16;78.96
48555;BME280;34336;48.270;16.716;2023-02-12T07:38:29;78384.78;;;18.16;78.96
48555;BME280;34336;48.270;16.716;2023-02-12T07:43:42;78353.94;;;18.16;77.94
48555;BME280;34336;48.270;16.716;2023-02-12T07:46:21;78344.31;;;18.16;77.48
48555;BME280;34336;48.270;16.716;2023-02-12T07:48:49;78325.03;;;18.16;76.58
48555;BME280;34336;48.270;16.716;2023-02-12T07:51:17;78317.31;;;18.16;76.35
48555;BME280;34336;48.270;16.716;2023-02-12T07:53:47;78290.31;;;18.16;76.35
48555;BME280;34336;48.270;16.716;2023-02-12T07:56:22;78301.88;;;18.16;75.63
48555;BME280;34336;48.270;16.716;2023-02-12T07:58:51;78278.75;;;18.16;74.94
48555;BME280;34336;48.270;16.716;2023-02-12T08:01:21;78267.19;;;18.16;74.55
48555;BME280;34336;48.270;16.716;2023-02-12T08:03:49;78240.19;;;18.16;73.55
48555;BME280;34336;48.270;16.716;2023-02-12T08:06:25;78228.63;;;18.16;73.18
48555;BME280;34336;48.270;16.716;2023-02-12T08:08:58;78201.63;;;18.16;71.82
48555;BME280;34336;48.270;16.716;2023-02-12T08:11:26;78161.16;;;18.16;71.31
48555;BME280;34336;48.270;16.716;2023-02-12T08:13:55;78132.22;;;18.16;70.13
48555;BME280;34336;48.270;16.716;2023-02-12T08:16:24;78080.19;;;18.16;69.53
48555;BME280;34336;48.270;16.716;2023-02-12T08:18:52;78114.88;;;18.16;68.81
48555;BME280;34336;48.270;16.716;2023-02-12T08:21:22;78016.56;;;18.16;67.47
48555;BME280;34336;48.270;16.716;2023-02-12T08:23:50;78026.19;;;18.16;66.52
48555;BME280;34336;48.270;16.716;2023-02-12T08:26:21;77989.56;;;18.16;65.58
48555;BME280;34336;48.270;16.716;2023-02-12T08:28:51;77939.44;;;18.16;64.23
48555;BME280;34336;48.270;16.716;2023-02-12T08:31:21;77902.81;;;18.16;62.37
48555;BME280;34336;48.270;16.716;2023-02-12T08:33:50;77920.16;;;18.16;62.79
48555;BME280;34336;48.270;16.716;2023-02-12T08:36:19;77854.63;;;18.16;62.08
48555;BME280;34336;48.270;16.716;2023-02-12T08:38:47;77837.28;;;18.16;61.96
48555;BME280;34336;48.270;16.716;2023-02-12T08:41:25;77906.66;;;18.16;62.49
48555;BME280;34336;48.270;16.716;2023-02-12T08:43:53;77931.72;;;18.16;62.04
48555;BME280;34336;48.270;16.716;2023-02-12T08:46:25;77945.22;;;18.16;62.97
48555;BME280;34336;48.270;16.716;2023-02-12T08:48:56;77954.88;;;18.16;63.25
48555;BME280;34336;48.270;16.716;2023-02-12T08:51:26;77989.56;;;18.16;63.65
48555;BME280;34336;48.270;16.716;2023-02-12T08:53:55;78010.78;;;18.16;63.88
48555;BME280;34336;48.270;16.716;2023-02-12T08:56:23;78053.19;;;18.16;65.80
48555;BME280;34336;48.270;16.716;2023-02-12T08:58:50;78070.53;;;18.16;65.60
48555;BME280;34336;48.270;16.716;2023-02-12T09:01:19;78047.41;;;18.16;65.49
48555;BME280;34336;48.270;16.716;2023-02-12T09:03:49;78031.97;;;18.16;65.01
48555;BME280;34336;48.270;16.716;2023-02-12T09:06:18;78001.13;;;18.16;64.41
48555;BME280;34336;48.270;16.716;2023-02-12T09:08:46;77956.78;;;18.16;64.01
48555;BME280;34336;48.270;16.716;2023-02-12T09:11:17;77962.56;;;18.16;64.56
48555;BME280;34336;48.270;16.716;2023-02-12T09:13:46;77922.09;;;18.16;63.47
48555;BME280;34336;48.270;16.716;2023-02-12T09:16:13;77920.16;;;18.16;63.37
48555;BME280;34336;48.270;16.716;2023-02-12T09:18:40;77920.16;;;18.16;62.79
48555;BME280;34336;48.270;16.716;2023-02-12T09:21:10;77898.97;;;18.16;62.05
48555;BME280;34336;48.270;16.716;2023-02-12T09:23:38;77943.31;;;18.16;62.78
48555;BME280;34336;48.270;16.716;2023-02-12T09:26:09;77920.16;;;18.16;62.16
48555;BME280;34336;48.270;16.716;2023-02-12T09:28:37;77900.88;;;18.16;62.14
48555;BME280;34336;48.270;16.716;2023-02-12T09:31:10;77931.72;;;18.16;63.22
48555;BME280;34336;48.270;16.716;2023-02-12T09:33:37;77966.44;;;18.16;62.79
48555;BME280;34336;48.270;16.716;2023-02-12T09:36:12;78018.47;;;18.16;63.70
48555;BME280;34336;48.270;16.716;2023-02-12T09:38:39;77981.84;;;18.16;63.41
48555;BME280;34336;48.270;16.716;2023-02-12T09:46:31;78031.97;;;18.16;64.88
48555;BME280;34336;48.270;16.716;2023-02-12T09:51:51;77983.78;;;18.16;63.73
48555;BME280;34336;48.270;16.716;2023-02-12T09:54:22;77981.84;;;18.16;63.56
48555;BME280;34336;48.270;16.716;2023-02-12T09:56:54;77981.84;;;18.16;64.08
48555;BME280;34336;48.270;16.716;2023-02-12T09:59:33;77937.50;;;18.16;62.92
48555;BME280;34336;48.270;16.716;2023-02-12T10:02:00;77954.88;;;18.16;62.20
48555;BME280;34336;48.270;16.716;2023-02-12T10:04:27;77922.09;;;18.16;61.63
48555;BME280;34336;48.270;16.716;2023-02-12T10:07:28;77854.63;;;18.16;61.80
48555;BME280;34336;48.270;16.716;2023-02-12T10:12:50;77862.34;;;18.16;60.39
48555;BME280;34336;48.270;16.716;2023-02-12T10:18:03;77812.22;;;18.16;59.53
48555;BME280;34336;48.270;16.716;2023-02-12T10:20:39;77837.28;;;18.16;59.54
48555;BME280;34336;48.270;16.716;2023-02-12T10:25:53;77839.19;;;18.16;59.56
48555;BME280;34336;48.270;16.716;2023-02-12T10:28:27;77858.47;;;18.16;59.99
48555;BME280;34336;48.270;16.716;2023-02-12T10:30:59;77858.47;;;18.16;60.04
48555;BME280;34336;48.270;16.716;2023-02-12T10:33:41;77800.66;;;18.16;58.86
48555;BME280;34336;48.270;16.716;2023-02-12T10:36:38;77806.44;;;18.16;58.57
48555;BME280;34336;48.270;16.716;2023-02-12T10:41:45;77812.22;;;18.16;58.64
48555;BME280;34336;48.270;16.716;2023-02-12T10:44:13;77850.75;;;18.16;59.46
48555;BME280;34336;48.270;16.716;2023-02-12T10:46:40;77858.47;;;18.16;59.52
48555;BME280;34336;48.270;16.716;2023-02-12T10:49:07;77927.88;;;18.16;60.52
48555;BME280;34336;48.270;16.716;2023-02-12T10:52:32;77873.91;;;18.16;60.58
48555;BME280;34336;48.270;16.716;2023-02-12T10:54:49;77835.34;;;18.16;58.96
48555;BME280;34336;48.270;16.716;2023-02-12T10:59:47;77781.38;;;18.16;58.63
48555;BME280;34336;48.270;16.716;2023-02-12T11:02:29;77781.38;;;18.16;59.13
48555;BME280;34336;48.270;16.716;2023-02-12T11:04:58;77785.22;;;18.16;57.83
48555;BME280;34336;48.270;16.716;2023-02-12T11:07:26;77816.06;;;18.16;57.48
48555;BME280;34336;48.270;16.716;2023-02-12T11:09:55;77804.50;;;18.16;58.87
48555;BME280;34336;48.270;16.716;2023-02-12T11:12:30;77852.69;;;18.16;59.20
48555;BME280;34336;48.270;16.716;2023-02-12T11:15:18;77777.50;;;18.16;57.97
48555;BME280;34336;48.270;16.716;2023-02-12T11:18:04;77798.72;;;18.16;57.78
48555;BME280;34336;48.270;16.716;2023-02-12T11:20:48;77777.50;;;18.16;57.72
48555;BME280;34336;48.270;16.716;2023-02-12T11:23:28;77791.00;;;18.16;57.09
48555;BME280;34336;48.270;16.716;2023-02-12T11:26:21;77843.06;;;18.16;58.88
48555;BME280;34336;48.270;16.716;2023-02-12T11:28:58;77823.78;;;18.16;58.75
48555;BME280;34336;48.270;16.716;2023-02-12T11:31:32;77848.84;;;18.16;59.54
48555;BME280;34336;48.270;16.716;2023-02-12T11:36:39;77823.78;;;18.16;58.80
48555;BME280;34336;48.270;16.716;2023-02-12T11:41:57;77831.50;;;18.16;57.98
48555;BME280;34336;48.270;16.716;2023-02-12T11:44:25;77864.25;;;18.16;58.35
48555;BME280;34336;48.270;16.716;2023-02-12T11:47:00;77816.06;;;18.16;57.75
48555;BME280;34336;48.270;16.716;2023-02-12T11:49:31;77800.66;;;18.16;57.49
48555;BME280;34336;48.270;16.716;2023-02-12T11:52:01;77791.00;;;18.16;57.32
48555;BME280;34336;48.270;16.716;2023-02-12T11:54:31;77777.50;;;18.16;56.93
48555;BME280;34336;48.270;16.716;2023-02-12T11:56:59;77742.81;;;18.16;56.61
48555;BME280;34336;48.270;16.716;2023-02-12T12:02:04;77777.50;;;18.16;56.32
48555;BME280;34336;48.270;16.716;2023-02-12T12:04:35;77727.38;;;18.16;56.63
48555;BME280;34336;48.270;16.716;2023-02-12T12:07:19;77715.81;;;18.16;55.39
48555;BME280;34336;48.270;16.716;2023-02-12T12:09:57;77738.97;;;18.16;55.82
48555;BME280;34336;48.270;16.716;2023-02-12T12:14:59;77796.78;;;18.16;56.12
48555;BME280;34336;48.270;16.716;2023-02-12T12:17:53;77746.66;;;18.16;55.21
48555;BME280;34336;48.270;16.716;2023-02-12T12:20:46;77731.25;;;18.16;55.61
48555;BME280;34336;48.270;16.716;2023-02-12T12:23:34;77721.59;;;18.16;55.16
48555;BME280;34336;48.270;16.716;2023-02-12T12:26:13;77767.88;;;18.16;55.24
48555;BME280;34336;48.270;16.716;2023-02-12T12:28:53;77740.88;;;18.16;55.24
48555;BME280;34336;48.270;16.716;2023-02-12T12:31:33;77750.53;;;18.16;54.53
48555;BME280;34336;48.270;16.716;2023-02-12T12:52:52;77831.50;;;18.16;55.92
48555;BME280;34336;48.270;16.716;2023-02-12T13:01:19;77823.78;;;18.16;56.80
48555;BME280;34336;48.270;16.716;2023-02-12T13:09:04;77839.19;;;18.16;55.19
48555;BME280;34336;48.270;16.716;2023-02-12T13:14:43;77798.72;;;18.16;55.11
48555;BME280;34336;48.270;16.716;2023-02-12T13:22:59;77835.34;;;18.16;54.21
48555;BME280;34336;48.270;16.716;2023-02-12T13:28:21;77823.78;;;18.16;54.33
48555;BME280;34336;48.270;16.716;2023-02-12T13:30:52;77833.41;;;18.16;54.09
48555;BME280;34336;48.270;16.716;2023-02-12T13:33:29;77810.28;;;18.16;54.27
48555;BME280;34336;48.270;16.716;2023-02-12T13:36:01;77804.50;;;18.16;54.30
48555;BME280;34336;48.270;16.716;2023-02-12T13:38:34;77789.06;;;18.16;53.55
48555;BME280;34336;48.270;16.716;2023-02-12T13:41:08;77808.34;;;18.16;53.23
48555;BME280;34336;48.270;16.716;2023-02-12T13:43:59;77812.22;;;18.16;53.29
48555;BME280;34336;48.270;16.716;2023-02-12T13:46:39;77804.50;;;18.16;53.74
48555;BME280;34336;48.270;16.716;2023-02-12T13:51:43;77858.47;;;18.16;55.71
48555;BME280;34336;48.270;16.716;2023-02-12T13:56:52;77870.03;;;18.16;56.64
48555;BME280;34336;48.270;16.716;2023-02-12T14:07:21;77889.31;;;18.16;56.82
48555;BME280;34336;48.270;16.716;2023-02-12T14:15:05;77897.03;;;18.16;56.81
48555;BME280;34336;48.270;16.716;2023-02-12T14:20:23;77929.81;;;18.16;56.85
48555;BME280;34336;48.270;16.716;2023-02-12T14:28:05;77952.94;;;18.16;57.30
48555;BME280;34336;48.270;16.716;2023-02-12T14:30:35;77951.00;;;18.16;57.30
48555;BME280;34336;48.270;16.716;2023-02-12T14:35:35;77970.28;;;18.16;58.08
48555;BME280;34336;48.270;16.716;2023-02-12T14:41:54;77981.84;;;18.16;58.57
48555;BME280;34336;48.270;16.716;2023-02-12T14:46:49;77995.34;;;18.16;58.43
48555;BME280;34336;48.270;16.716;2023-02-12T14:49:32;77983.78;;;18.16;58.29
48555;BME280;34336;48.270;16.716;2023-02-12T14:54:42;77991.50;;;18.16;57.14
48555;BME280;34336;48.270;16.716;2023-02-12T14:59:51;78001.13;;;18.16;56.75
48555;BME280;34336;48.270;16.716;2023-02-12T15:02:25;78016.56;;;18.16;56.66
48555;BME280;34336;48.270;16.716;2023-02-12T15:04:57;78033.91;;;18.16;56.95
48555;BME280;34336;48.270;16.716;2023-02-12T15:07:47;78035.84;;;18.16;57.46
48555;BME280;34336;48.270;16.716;2023-02-12T15:10:21;78047.41;;;18.16;58.00
48555;BME280;34336;48.270;16.716;2023-02-12T15:15:51;78082.09;;;18.16;59.86
48555;BME280;34336;48.270;16.716;2023-02-12T15:18:29;78097.53;;;18.16;60.60
48555;BME280;34336;48.270;16.716;2023-02-12T15:21:21;78112.94;;;18.16;61.55
48555;BME280;34336;48.270;16.716;2023-02-12T15:24:09;78120.66;;;18.16;62.11
48555;BME280;34336;48.270;16.716;2023-02-12T15:26:40;78128.38;;;18.16;62.82
48555;BME280;34336;48.270;16.716;2023-02-12T15:32:05;78155.34;;;18.16;64.09
48555;BME280;34336;48.270;16.716;2023-02-12T15:34:35;78186.22;;;18.16;64.75
48555;BME280;34336;48.270;16.716;2023-02-12T15:37:04;78197.78;;;18.16;65.22
48555;BME280;34336;48.270;16.716;2023-02-12T15:39:41;78213.19;;;18.16;66.22
48555;BME280;34336;48.270;16.716;2023-02-12T15:47:36;78240.19;;;18.16;67.52
48555;BME280;34336;48.270;16.716;2023-02-12T15:50:02;78238.25;;;18.16;67.58
48555;BME280;34336;48.270;16.716;2023-02-12T15:52:33;78259.47;;;18.16;68.26
48555;BME280;34336;48.270;16.716;2023-02-12T15:55:03;78255.63;;;18.16;68.52
48555;BME280;34336;48.270;16.716;2023-02-12T15:57:31;78255.63;;;18.16;68.86
48555;BME280;34336;48.270;16.716;2023-02-12T16:00:06;78263.31;;;18.16;68.94